Nearby METAR Reports

 

KVUO - Vancouver, Washington, USA
Distance from station: SW 21mi, 33km
Updated: 04/15/2024 4:53am
Overcast
Overcast
 Wind from NW
Wind: NW 3 mph, 6 km/h
Temperature: 50°F, 10°C
Dew Point: 37°F, 3°C
Humidity: 62%
Barometer: 30.26 inHg, 1024.7 hPa
Clouds: Overcast
Visibility: 10 miles, 16 km
Cloud details: Overcast 4600 ft
2024/04/15 11:53 KVUO 151153Z AUTO 32003KT 10SM OVC046 10/03 A3026 RMK AO2 SLP246 T01000033 10100 20094 53007 $
KPDX - Portland, Oregon, USA
Distance from station: SSW 21mi, 34km
Updated: 04/15/2024 4:53am
Overcast
Overcast
 Wind from W
Wind: W 3 mph, 6 km/h
Temperature: 52°F, 11°C
Dew Point: 39°F, 4°C
Humidity: 62%
Barometer: 30.24 inHg, 1024 hPa
Clouds: Overcast
Visibility: 10 miles, 16 km
Cloud details: Few Clouds 3300 ft
Overcast 4400 ft
2024/04/15 11:53 KPDX 151153Z 27003KT 10SM FEW033 OVC044 11/04 A3024 RMK AO2 SLP240 T01060039 10106 20100 53007 $
 
KTTD - Troutdale, Oregon, USA
Distance from station: S 22mi, 35km
Updated: 04/11/2024 10:53am
NOT Current
Partly cloudy
Partly cloudy
 Wind from calm
Wind: Calm
Temperature: 55°F, 13°C
Dew Point: 45°F, 7°C
Humidity: 67%
Barometer: 30.02 inHg, 1016.6 hPa
Clouds: Partly cloudy
Visibility: 10 miles, 16 km
Cloud details: Partly cloudy 5000 ft
2024/04/11 17:53 KTTD 111753Z 00000KT 10SM SCT050 13/07 A3002 RMK AO2 SLP165 T01330067 10133 20044 58017
KSPB - Scappoose, Oregon, USA
Distance from station: WSW 23mi, 38km
Updated: 04/15/2024 4:53am
Overcast
Overcast
 Wind from W
Wind: W 5 mph, 7 km/h
Temperature: 48°F, 9°C
Wind Chill: 46°F, 8°C
Dew Point: 41°F, 5°C
Humidity: 76%
Barometer: 30.24 inHg, 1024 hPa
Clouds: Overcast
Visibility: 10 miles, 16 km
Cloud details: Partly cloudy 3800 ft
Overcast 5500 ft
2024/04/15 11:53 KSPB 151153Z AUTO 28004KT 10SM SCT038 OVC055 09/05 A3024 RMK AO2 SLP240 T00890050 10094 20072 53008
 
KKLS - Kelso Longveiw, Washington, USA
Distance from station: NW 30mi, 48km
Updated: 04/15/2024 4:56am
Light rain, Overcast
Light rain, Overcast
 Wind from calm
Wind: Calm
Temperature: 46°F, 8°C
Dew Point: 45°F, 7°C
Humidity: 93%
Barometer: 30.25 inHg, 1024.4 hPa
Summary: Light rain
Clouds: Overcast
Visibility: 9 miles, 14 km
Cloud details: Few Clouds 500 ft
Mostly cloudy 1700 ft
Overcast 2900 ft
2024/04/15 11:56 KKLS 151156Z AUTO 00000KT 9SM -RA FEW005 BKN017 OVC029 08/07 A3025 RMK AO2 RAB12 SLP249 P0003 60003 70003 T00780067 10094 20072 53008
KHIO - Hillsboro/Portld, Oregon, USA
Distance from station: SW 34mi, 55km
Updated: 04/15/2024 4:53am
Overcast
Overcast
 
Temperature: 46°F, 8°C
Dew Point: 41°F, 5°C
Humidity: 82%
Barometer: 30.24 inHg, 1024 hPa
Clouds: Overcast
Visibility: 10 miles, 16 km
Cloud details: Overcast 4400 ft
2024/04/15 11:53 KHIO 151153Z AUTO 10SM OVC044 08/05 A3024 RMK AO2 SLP239 T00830050 10094 20083 53008 $
 
K4S2 - Hood River, Oregon, USA
Distance from station: ESE 43mi, 69km
Updated: 04/15/2024 4:55am
Mostly cloudy
Mostly cloudy
 Wind from W
Wind: W 9 mph, 15 km/h
Temperature: 46°F, 8°C
Wind Chill: 41°F, 5°C
Dew Point: 36°F, 2°C
Humidity: 66%
Barometer: 30.15 inHg, 1021 hPa
Clouds: Mostly cloudy
Visibility: 10 miles, 16 km
Cloud details: Mostly cloudy 3300 ft
Mostly cloudy 4000 ft
2024/04/15 11:55 K4S2 151155Z AUTO 28008KT 240V330 10SM BKN033 BKN040 08/02 A3015 RMK AO2
KUAO - Aurora, Oregon, USA
Distance from station: SSW 46mi, 74km
Updated: 04/15/2024 4:53am
Overcast
Overcast
 Wind from ESE
Wind: ESE 3 mph, 6 km/h
Temperature: 48°F, 9°C
Dew Point: 39°F, 4°C
Humidity: 71%
Barometer: 30.26 inHg, 1024.7 hPa
Clouds: Overcast
Visibility: 10 miles, 16 km
Cloud details: Overcast 3000 ft
2024/04/15 11:53 KUAO 151153Z AUTO 12003KT 10SM OVC030 09/04 A3026 RMK AO2 SLP246 T00890044 10100 20089 53008